Terminal Aerodrome Forecast
Issued by NWS Wichita, KS

Home | Current Version | Previous Version | Graphics & Text | Print | Product List | Glossary On
Versions: 1 2 3 4 5 6 7 8 9 10 11 12 13 14 15 16 17 18 19 20 21 22 23 24 25 26 27
000
FTUS43 KICT 200540
TAFICT
TAF
KICT 200540Z 2006/2106 12004KT P6SM SKC
     FM201400 17007KT P6SM BKN300=

USA.gov is the U.S. government's official web portal to all federal, state and local government web resources and services.